Airport ID:KJWN
Update Time (UTC):30/05/2020 16:28
Wind Speed (Knots):10
Wind Direction (Magnetic):300
Temperature (°C):25
Dew Point (°C):12
Humidity (%):43
Altimeter (inHg):30.11
Density Altitude (Feet):1700
Visibility:10+
Clouds (Hundreds of feet):CLR
Present Weather:
METAR:METAR KJWN 301625Z AUTO 29008KT 10SM CLR 24/13 A3011 RMK A01

The data displayed is for advisory purposes only and is not to be used for flight planning or operations.